sensor_id;sensor_type;location;lat;lon;timestamp;temperature;humidity
42097;DHT22;27754;45.414;11.084;2022-12-18T00:02:15;4.60;91.80
42097;DHT22;27754;45.414;11.084;2022-12-18T00:04:42;4.80;91.70
42097;DHT22;27754;45.414;11.084;2022-12-18T00:07:10;4.80;91.50
42097;DHT22;27754;45.414;11.084;2022-12-18T00:09:37;4.90;91.10
42097;DHT22;27754;45.414;11.084;2022-12-18T00:12:06;4.90;91.00
42097;DHT22;27754;45.414;11.084;2022-12-18T00:14:44;4.90;91.00
42097;DHT22;27754;45.414;11.084;2022-12-18T00:17:11;4.80;90.90
42097;DHT22;27754;45.414;11.084;2022-12-18T00:19:38;4.70;91.00
42097;DHT22;27754;45.414;11.084;2022-12-18T00:22:05;4.70;91.20
42097;DHT22;27754;45.414;11.084;2022-12-18T00:24:33;4.70;91.20
42097;DHT22;27754;45.414;11.084;2022-12-18T00:27:00;4.50;90.80
42097;DHT22;27754;45.414;11.084;2022-12-18T00:29:27;4.50;90.90
42097;DHT22;27754;45.414;11.084;2022-12-18T00:31:54;4.40;91.70
42097;DHT22;27754;45.414;11.084;2022-12-18T00:34:21;4.40;91.80
42097;DHT22;27754;45.414;11.084;2022-12-18T00:36:48;4.40;92.00
42097;DHT22;27754;45.414;11.084;2022-12-18T00:39:15;4.50;91.80
42097;DHT22;27754;45.414;11.084;2022-12-18T00:41:44;4.50;91.90
42097;DHT22;27754;45.414;11.084;2022-12-18T00:44:30;4.50;92.00
42097;DHT22;27754;45.414;11.084;2022-12-18T00:46:57;4.50;92.10
42097;DHT22;27754;45.414;11.084;2022-12-18T00:49:24;4.60;92.30
42097;DHT22;27754;45.414;11.084;2022-12-18T00:51:51;4.60;92.30
42097;DHT22;27754;45.414;11.084;2022-12-18T00:54:21;4.50;92.00
42097;DHT22;27754;45.414;11.084;2022-12-18T00:56:49;4.40;92.20
42097;DHT22;27754;45.414;11.084;2022-12-18T00:59:17;4.50;92.40
42097;DHT22;27754;45.414;11.084;2022-12-18T01:01:44;4.50;92.60
42097;DHT22;27754;45.414;11.084;2022-12-18T01:04:12;4.60;92.70
42097;DHT22;27754;45.414;11.084;2022-12-18T01:06:39;4.60;92.60
42097;DHT22;27754;45.414;11.084;2022-12-18T01:09:06;4.70;92.30
42097;DHT22;27754;45.414;11.084;2022-12-18T01:11:35;4.70;92.30
42097;DHT22;27754;45.414;11.084;2022-12-18T01:14:03;4.70;92.20
42097;DHT22;27754;45.414;11.084;2022-12-18T01:16:49;4.80;92.00
42097;DHT22;27754;45.414;11.084;2022-12-18T01:19:16;4.80;91.60
42097;DHT22;27754;45.414;11.084;2022-12-18T01:21:43;4.90;90.80
42097;DHT22;27754;45.414;11.084;2022-12-18T01:24:11;4.90;90.80
42097;DHT22;27754;45.414;11.084;2022-12-18T01:26:38;4.90;90.90
42097;DHT22;27754;45.414;11.084;2022-12-18T01:29:06;4.90;90.90
42097;DHT22;27754;45.414;11.084;2022-12-18T01:31:33;5.00;91.30
42097;DHT22;27754;45.414;11.084;2022-12-18T01:34:02;4.90;91.40
42097;DHT22;27754;45.414;11.084;2022-12-18T01:36:35;5.00;91.60
42097;DHT22;27754;45.414;11.084;2022-12-18T01:39:11;5.00;91.70
42097;DHT22;27754;45.414;11.084;2022-12-18T01:41:41;5.00;91.70
42097;DHT22;27754;45.414;11.084;2022-12-18T01:44:56;5.10;91.60
42097;DHT22;27754;45.414;11.084;2022-12-18T01:47:45;5.00;91.40
42097;DHT22;27754;45.414;11.084;2022-12-18T01:50:36;5.00;91.30
42097;DHT22;27754;45.414;11.084;2022-12-18T01:53:16;5.00;91.30
42097;DHT22;27754;45.414;11.084;2022-12-18T01:55:47;4.90;91.30
42097;DHT22;27754;45.414;11.084;2022-12-18T01:58:15;5.00;91.10
42097;DHT22;27754;45.414;11.084;2022-12-18T02:00:42;5.10;91.30
42097;DHT22;27754;45.414;11.084;2022-12-18T02:03:11;5.10;91.10
42097;DHT22;27754;45.414;11.084;2022-12-18T02:18:57;5.40;90.90
42097;DHT22;27754;45.414;11.084;2022-12-18T02:21:49;5.40;91.00
42097;DHT22;27754;45.414;11.084;2022-12-18T02:24:44;5.40;91.00
42097;DHT22;27754;45.414;11.084;2022-12-18T02:27:18;5.50;90.60
42097;DHT22;27754;45.414;11.084;2022-12-18T02:29:54;5.50;90.60
42097;DHT22;27754;45.414;11.084;2022-12-18T02:32:27;5.40;90.60
42097;DHT22;27754;45.414;11.084;2022-12-18T02:34:56;5.40;91.10
42097;DHT22;27754;45.414;11.084;2022-12-18T02:37:27;5.40;91.10
42097;DHT22;27754;45.414;11.084;2022-12-18T02:39:57;5.40;91.30
42097;DHT22;27754;45.414;11.084;2022-12-18T02:42:26;5.40;91.40
42097;DHT22;27754;45.414;11.084;2022-12-18T02:44:54;5.40;91.60
42097;DHT22;27754;45.414;11.084;2022-12-18T02:47:27;5.40;91.50
42097;DHT22;27754;45.414;11.084;2022-12-18T02:52:53;5.40;91.40
42097;DHT22;27754;45.414;11.084;2022-12-18T03:00:52;5.40;91.10
42097;DHT22;27754;45.414;11.084;2022-12-18T03:03:59;5.50;91.20
42097;DHT22;27754;45.414;11.084;2022-12-18T03:06:29;5.50;91.30
42097;DHT22;27754;45.414;11.084;2022-12-18T03:09:02;5.50;91.40
42097;DHT22;27754;45.414;11.084;2022-12-18T03:11:33;5.50;91.10
42097;DHT22;27754;45.414;11.084;2022-12-18T03:14:21;5.60;91.30
42097;DHT22;27754;45.414;11.084;2022-12-18T03:16:54;5.60;91.10
42097;DHT22;27754;45.414;11.084;2022-12-18T03:19:24;5.50;91.30
42097;DHT22;27754;45.414;11.084;2022-12-18T03:21:59;5.50;91.30
42097;DHT22;27754;45.414;11.084;2022-12-18T03:24:33;5.50;91.40
42097;DHT22;27754;45.414;11.084;2022-12-18T03:27:07;5.50;91.50
42097;DHT22;27754;45.414;11.084;2022-12-18T03:29:51;5.50;91.60
42097;DHT22;27754;45.414;11.084;2022-12-18T03:32:31;5.50;91.60
42097;DHT22;27754;45.414;11.084;2022-12-18T03:35:03;5.50;91.80
42097;DHT22;27754;45.414;11.084;2022-12-18T03:37:36;5.50;91.90
42097;DHT22;27754;45.414;11.084;2022-12-18T03:40:06;5.50;92.00
42097;DHT22;27754;45.414;11.084;2022-12-18T03:42:48;5.50;92.20
42097;DHT22;27754;45.414;11.084;2022-12-18T03:45:37;5.50;92.40
42097;DHT22;27754;45.414;11.084;2022-12-18T03:51:05;5.50;92.40
42097;DHT22;27754;45.414;11.084;2022-12-18T03:53:48;5.50;92.60
42097;DHT22;27754;45.414;11.084;2022-12-18T03:56:21;5.60;92.60
42097;DHT22;27754;45.414;11.084;2022-12-18T03:58:50;5.50;92.50
42097;DHT22;27754;45.414;11.084;2022-12-18T04:01:26;5.50;92.60
42097;DHT22;27754;45.414;11.084;2022-12-18T04:03:57;5.50;92.70
42097;DHT22;27754;45.414;11.084;2022-12-18T04:06:26;5.50;92.70
42097;DHT22;27754;45.414;11.084;2022-12-18T04:08:54;5.50;92.60
42097;DHT22;27754;45.414;11.084;2022-12-18T04:11:24;5.40;92.70
42097;DHT22;27754;45.414;11.084;2022-12-18T04:13:56;5.40;92.70
42097;DHT22;27754;45.414;11.084;2022-12-18T04:16:31;5.40;92.70
42097;DHT22;27754;45.414;11.084;2022-12-18T04:19:02;5.40;92.70
42097;DHT22;27754;45.414;11.084;2022-12-18T04:21:34;5.30;92.90
42097;DHT22;27754;45.414;11.084;2022-12-18T04:24:01;5.30;93.10
42097;DHT22;27754;45.414;11.084;2022-12-18T04:26:29;5.40;93.10
42097;DHT22;27754;45.414;11.084;2022-12-18T04:29:16;5.30;93.20
42097;DHT22;27754;45.414;11.084;2022-12-18T04:31:43;5.30;93.50
42097;DHT22;27754;45.414;11.084;2022-12-18T04:34:10;5.40;93.50
42097;DHT22;27754;45.414;11.084;2022-12-18T04:36:44;5.40;93.40
42097;DHT22;27754;45.414;11.084;2022-12-18T04:39:12;5.40;93.40
42097;DHT22;27754;45.414;11.084;2022-12-18T04:41:40;5.40;93.30
42097;DHT22;27754;45.414;11.084;2022-12-18T04:44:08;5.40;93.30
42097;DHT22;27754;45.414;11.084;2022-12-18T04:46:35;5.40;93.20
42097;DHT22;27754;45.414;11.084;2022-12-18T04:49:03;5.50;93.20
42097;DHT22;27754;45.414;11.084;2022-12-18T04:51:29;5.50;93.20
42097;DHT22;27754;45.414;11.084;2022-12-18T04:53:56;5.60;93.20
42097;DHT22;27754;45.414;11.084;2022-12-18T04:56:23;5.60;93.10
42097;DHT22;27754;45.414;11.084;2022-12-18T04:58:50;5.60;93.10
42097;DHT22;27754;45.414;11.084;2022-12-18T05:01:17;5.60;93.20
42097;DHT22;27754;45.414;11.084;2022-12-18T05:03:45;5.60;93.00
42097;DHT22;27754;45.414;11.084;2022-12-18T05:06:12;5.60;93.10
42097;DHT22;27754;45.414;11.084;2022-12-18T05:08:38;5.60;93.20
42097;DHT22;27754;45.414;11.084;2022-12-18T05:11:09;5.60;93.30
42097;DHT22;27754;45.414;11.084;2022-12-18T05:13:37;5.70;93.10
42097;DHT22;27754;45.414;11.084;2022-12-18T05:16:05;5.70;93.00
42097;DHT22;27754;45.414;11.084;2022-12-18T05:18:33;5.70;92.80
42097;DHT22;27754;45.414;11.084;2022-12-18T05:21:00;5.70;92.50
42097;DHT22;27754;45.414;11.084;2022-12-18T05:23:27;5.70;92.10
42097;DHT22;27754;45.414;11.084;2022-12-18T05:25:59;5.70;92.10
42097;DHT22;27754;45.414;11.084;2022-12-18T05:28:28;5.80;92.00
42097;DHT22;27754;45.414;11.084;2022-12-18T05:30:58;5.80;91.90
42097;DHT22;27754;45.414;11.084;2022-12-18T05:33:28;5.80;91.90
42097;DHT22;27754;45.414;11.084;2022-12-18T05:36:00;5.80;92.00
42097;DHT22;27754;45.414;11.084;2022-12-18T05:38:27;5.80;92.10
42097;DHT22;27754;45.414;11.084;2022-12-18T05:40:55;5.80;92.10
42097;DHT22;27754;45.414;11.084;2022-12-18T05:43:23;5.80;92.00
42097;DHT22;27754;45.414;11.084;2022-12-18T05:45:51;5.80;91.80
42097;DHT22;27754;45.414;11.084;2022-12-18T05:48:20;5.80;91.60
42097;DHT22;27754;45.414;11.084;2022-12-18T05:50:49;5.80;91.30
42097;DHT22;27754;45.414;11.084;2022-12-18T05:53:18;5.80;91.10
42097;DHT22;27754;45.414;11.084;2022-12-18T05:55:46;5.90;91.20
42097;DHT22;27754;45.414;11.084;2022-12-18T05:58:15;5.80;91.10
42097;DHT22;27754;45.414;11.084;2022-12-18T06:00:45;5.80;90.90
42097;DHT22;27754;45.414;11.084;2022-12-18T06:03:13;5.90;90.90
42097;DHT22;27754;45.414;11.084;2022-12-18T06:05:43;5.90;90.90
42097;DHT22;27754;45.414;11.084;2022-12-18T06:08:11;5.90;90.90
42097;DHT22;27754;45.414;11.084;2022-12-18T06:10:39;5.90;91.00
42097;DHT22;27754;45.414;11.084;2022-12-18T06:13:07;5.90;91.00
42097;DHT22;27754;45.414;11.084;2022-12-18T06:15:36;5.90;91.40
42097;DHT22;27754;45.414;11.084;2022-12-18T06:18:03;5.90;91.50
42097;DHT22;27754;45.414;11.084;2022-12-18T06:20:30;5.90;91.50
42097;DHT22;27754;45.414;11.084;2022-12-18T06:22:59;5.90;91.30
42097;DHT22;27754;45.414;11.084;2022-12-18T06:25:26;5.90;91.20
42097;DHT22;27754;45.414;11.084;2022-12-18T06:27:53;5.90;91.20
42097;DHT22;27754;45.414;11.084;2022-12-18T06:30:20;5.90;91.10
42097;DHT22;27754;45.414;11.084;2022-12-18T06:32:51;5.90;91.50
42097;DHT22;27754;45.414;11.084;2022-12-18T06:35:23;5.90;91.50
42097;DHT22;27754;45.414;11.084;2022-12-18T06:37:50;5.90;91.60
42097;DHT22;27754;45.414;11.084;2022-12-18T06:40:18;5.90;91.80
42097;DHT22;27754;45.414;11.084;2022-12-18T06:42:44;5.90;91.90
42097;DHT22;27754;45.414;11.084;2022-12-18T06:45:14;5.80;91.90
42097;DHT22;27754;45.414;11.084;2022-12-18T06:47:41;5.80;92.10
42097;DHT22;27754;45.414;11.084;2022-12-18T06:50:09;5.80;92.10
42097;DHT22;27754;45.414;11.084;2022-12-18T06:52:36;5.80;92.30
42097;DHT22;27754;45.414;11.084;2022-12-18T06:55:03;5.70;92.10
42097;DHT22;27754;45.414;11.084;2022-12-18T06:57:30;5.60;92.10
42097;DHT22;27754;45.414;11.084;2022-12-18T06:59:57;5.60;92.40
42097;DHT22;27754;45.414;11.084;2022-12-18T07:02:24;5.60;92.70
42097;DHT22;27754;45.414;11.084;2022-12-18T07:04:51;5.60;92.80
42097;DHT22;27754;45.414;11.084;2022-12-18T07:07:18;5.60;92.80
42097;DHT22;27754;45.414;11.084;2022-12-18T07:09:45;5.60;92.90
42097;DHT22;27754;45.414;11.084;2022-12-18T07:12:12;5.60;92.90
42097;DHT22;27754;45.414;11.084;2022-12-18T07:14:39;5.70;92.90
42097;DHT22;27754;45.414;11.084;2022-12-18T07:17:05;5.70;93.00
42097;DHT22;27754;45.414;11.084;2022-12-18T07:19:33;5.70;93.00
42097;DHT22;27754;45.414;11.084;2022-12-18T07:22:00;5.70;92.80
42097;DHT22;27754;45.414;11.084;2022-12-18T07:24:28;5.80;92.90
42097;DHT22;27754;45.414;11.084;2022-12-18T07:26:55;5.80;92.80
42097;DHT22;27754;45.414;11.084;2022-12-18T07:29:22;5.80;92.80
42097;DHT22;27754;45.414;11.084;2022-12-18T07:31:49;5.80;92.80
42097;DHT22;27754;45.414;11.084;2022-12-18T07:34:16;5.80;92.40
42097;DHT22;27754;45.414;11.084;2022-12-18T07:36:43;5.80;92.20
42097;DHT22;27754;45.414;11.084;2022-12-18T07:39:11;5.80;92.20
42097;DHT22;27754;45.414;11.084;2022-12-18T07:41:38;5.80;92.10
42097;DHT22;27754;45.414;11.084;2022-12-18T07:44:15;5.80;92.20
42097;DHT22;27754;45.414;11.084;2022-12-18T07:46:42;5.80;92.30
42097;DHT22;27754;45.414;11.084;2022-12-18T07:49:08;5.80;92.30
42097;DHT22;27754;45.414;11.084;2022-12-18T07:51:35;5.80;92.30
42097;DHT22;27754;45.414;11.084;2022-12-18T07:54:02;5.80;92.10
42097;DHT22;27754;45.414;11.084;2022-12-18T07:56:29;5.80;92.20
42097;DHT22;27754;45.414;11.084;2022-12-18T07:58:58;5.90;92.20
42097;DHT22;27754;45.414;11.084;2022-12-18T08:01:30;5.90;92.10
42097;DHT22;27754;45.414;11.084;2022-12-18T08:03:58;5.90;92.30
42097;DHT22;27754;45.414;11.084;2022-12-18T08:06:25;6.00;92.10
42097;DHT22;27754;45.414;11.084;2022-12-18T08:08:53;6.10;91.90
42097;DHT22;27754;45.414;11.084;2022-12-18T08:11:21;6.10;91.80
42097;DHT22;27754;45.414;11.084;2022-12-18T08:13:48;6.20;91.60
42097;DHT22;27754;45.414;11.084;2022-12-18T08:16:16;6.20;91.40
42097;DHT22;27754;45.414;11.084;2022-12-18T08:18:43;6.30;91.40
42097;DHT22;27754;45.414;11.084;2022-12-18T08:21:21;6.40;91.40
42097;DHT22;27754;45.414;11.084;2022-12-18T08:23:50;6.40;91.20
42097;DHT22;27754;45.414;11.084;2022-12-18T08:26:18;6.50;90.50
42097;DHT22;27754;45.414;11.084;2022-12-18T08:28:46;6.50;90.50
42097;DHT22;27754;45.414;11.084;2022-12-18T08:31:13;6.60;90.30
42097;DHT22;27754;45.414;11.084;2022-12-18T08:33:41;6.60;90.10
42097;DHT22;27754;45.414;11.084;2022-12-18T08:36:09;6.70;89.90
42097;DHT22;27754;45.414;11.084;2022-12-18T08:38:36;6.70;89.60
42097;DHT22;27754;45.414;11.084;2022-12-18T08:41:06;6.80;89.20
42097;DHT22;27754;45.414;11.084;2022-12-18T08:43:34;6.90;88.80
42097;DHT22;27754;45.414;11.084;2022-12-18T08:46:20;6.80;88.40
42097;DHT22;27754;45.414;11.084;2022-12-18T08:48:48;6.90;87.80
42097;DHT22;27754;45.414;11.084;2022-12-18T08:51:17;6.90;88.00
42097;DHT22;27754;45.414;11.084;2022-12-18T08:53:44;7.00;87.80
42097;DHT22;27754;45.414;11.084;2022-12-18T08:56:12;7.00;87.80
42097;DHT22;27754;45.414;11.084;2022-12-18T08:58:40;7.10;88.00
42097;DHT22;27754;45.414;11.084;2022-12-18T09:01:09;7.20;87.70
42097;DHT22;27754;45.414;11.084;2022-12-18T09:03:37;7.20;87.20
42097;DHT22;27754;45.414;11.084;2022-12-18T09:06:06;7.30;87.30
42097;DHT22;27754;45.414;11.084;2022-12-18T09:08:33;7.40;86.90
42097;DHT22;27754;45.414;11.084;2022-12-18T09:11:00;7.40;86.90
42097;DHT22;27754;45.414;11.084;2022-12-18T09:13:27;7.40;86.00
42097;DHT22;27754;45.414;11.084;2022-12-18T09:15:55;7.40;85.80
42097;DHT22;27754;45.414;11.084;2022-12-18T09:18:23;7.40;85.40
42097;DHT22;27754;45.414;11.084;2022-12-18T09:20:50;7.40;84.80
42097;DHT22;27754;45.414;11.084;2022-12-18T09:23:20;7.40;84.50
42097;DHT22;27754;45.414;11.084;2022-12-18T09:25:47;7.50;84.20
42097;DHT22;27754;45.414;11.084;2022-12-18T09:28:16;7.40;84.60
42097;DHT22;27754;45.414;11.084;2022-12-18T09:30:46;7.50;83.40
42097;DHT22;27754;45.414;11.084;2022-12-18T09:33:13;7.60;83.50
42097;DHT22;27754;45.414;11.084;2022-12-18T09:35:42;7.70;83.40
42097;DHT22;27754;45.414;11.084;2022-12-18T09:38:15;7.70;82.80
42097;DHT22;27754;45.414;11.084;2022-12-18T09:40:47;7.70;83.30
42097;DHT22;27754;45.414;11.084;2022-12-18T09:43:20;7.80;82.50
42097;DHT22;27754;45.414;11.084;2022-12-18T09:45:53;7.80;82.80
42097;DHT22;27754;45.414;11.084;2022-12-18T09:48:37;7.90;82.00
42097;DHT22;27754;45.414;11.084;2022-12-18T09:53:47;8.00;82.10
42097;DHT22;27754;45.414;11.084;2022-12-18T09:56:19;8.10;82.00
42097;DHT22;27754;45.414;11.084;2022-12-18T09:58:59;8.10;81.20
42097;DHT22;27754;45.414;11.084;2022-12-18T10:01:29;8.20;80.00
42097;DHT22;27754;45.414;11.084;2022-12-18T10:04:09;8.20;79.60
42097;DHT22;27754;45.414;11.084;2022-12-18T10:09:30;8.10;80.90
42097;DHT22;27754;45.414;11.084;2022-12-18T10:15:40;8.30;79.30
42097;DHT22;27754;45.414;11.084;2022-12-18T10:21:12;8.20;79.20
42097;DHT22;27754;45.414;11.084;2022-12-18T10:26:17;8.00;79.20
42097;DHT22;27754;45.414;11.084;2022-12-18T10:28:45;8.00;79.50
42097;DHT22;27754;45.414;11.084;2022-12-18T10:31:20;8.00;79.30
42097;DHT22;27754;45.414;11.084;2022-12-18T10:33:50;8.00;79.20
42097;DHT22;27754;45.414;11.084;2022-12-18T10:36:17;7.90;79.20
42097;DHT22;27754;45.414;11.084;2022-12-18T10:38:44;7.90;79.80
42097;DHT22;27754;45.414;11.084;2022-12-18T10:44:19;8.10;79.90
42097;DHT22;27754;45.414;11.084;2022-12-18T10:46:49;8.00;79.90
42097;DHT22;27754;45.414;11.084;2022-12-18T10:49:23;7.90;79.00
42097;DHT22;27754;45.414;11.084;2022-12-18T10:51:51;7.90;79.60
42097;DHT22;27754;45.414;11.084;2022-12-18T10:54:31;7.90;79.50
42097;DHT22;27754;45.414;11.084;2022-12-18T10:57:36;7.90;79.50
42097;DHT22;27754;45.414;11.084;2022-12-18T11:00:23;7.90;79.90
42097;DHT22;27754;45.414;11.084;2022-12-18T11:02:50;7.90;81.00
42097;DHT22;27754;45.414;11.084;2022-12-18T11:05:29;7.90;81.20
42097;DHT22;27754;45.414;11.084;2022-12-18T11:07:58;7.90;81.40
42097;DHT22;27754;45.414;11.084;2022-12-18T11:10:37;7.90;81.40
42097;DHT22;27754;45.414;11.084;2022-12-18T11:13:16;7.90;80.90
42097;DHT22;27754;45.414;11.084;2022-12-18T11:15:44;7.80;81.40
42097;DHT22;27754;45.414;11.084;2022-12-18T11:18:34;7.70;81.40
42097;DHT22;27754;45.414;11.084;2022-12-18T11:21:06;7.80;81.50
42097;DHT22;27754;45.414;11.084;2022-12-18T11:23:35;7.80;81.30
42097;DHT22;27754;45.414;11.084;2022-12-18T11:26:04;7.80;81.50
42097;DHT22;27754;45.414;11.084;2022-12-18T11:31:31;7.80;80.50
42097;DHT22;27754;45.414;11.084;2022-12-18T11:34:11;7.90;80.40
42097;DHT22;27754;45.414;11.084;2022-12-18T11:36:58;7.90;81.00
42097;DHT22;27754;45.414;11.084;2022-12-18T11:39:46;8.00;80.40
42097;DHT22;27754;45.414;11.084;2022-12-18T11:42:36;8.00;81.00
42097;DHT22;27754;45.414;11.084;2022-12-18T11:47:47;8.10;80.10
42097;DHT22;27754;45.414;11.084;2022-12-18T11:50:24;8.20;79.60
42097;DHT22;27754;45.414;11.084;2022-12-18T11:52:52;8.20;79.30
42097;DHT22;27754;45.414;11.084;2022-12-18T12:07:19;8.20;77.20
42097;DHT22;27754;45.414;11.084;2022-12-18T12:12:30;8.40;76.10
42097;DHT22;27754;45.414;11.084;2022-12-18T12:15:20;8.40;76.20
42097;DHT22;27754;45.414;11.084;2022-12-18T12:17:56;8.50;76.00
42097;DHT22;27754;45.414;11.084;2022-12-18T12:20:58;8.60;75.60
42097;DHT22;27754;45.414;11.084;2022-12-18T12:26:10;8.70;75.50
42097;DHT22;27754;45.414;11.084;2022-12-18T12:31:33;8.60;76.50
42097;DHT22;27754;45.414;11.084;2022-12-18T12:34:23;8.60;77.00
42097;DHT22;27754;45.414;11.084;2022-12-18T12:39:37;8.70;78.20
42097;DHT22;27754;45.414;11.084;2022-12-18T12:42:10;8.70;77.80
42097;DHT22;27754;45.414;11.084;2022-12-18T12:44:57;8.70;77.70
42097;DHT22;27754;45.414;11.084;2022-12-18T12:47:32;8.80;77.50
42097;DHT22;27754;45.414;11.084;2022-12-18T12:50:03;8.80;78.10
42097;DHT22;27754;45.414;11.084;2022-12-18T12:52:37;8.90;77.80
42097;DHT22;27754;45.414;11.084;2022-12-18T12:55:17;8.80;78.20
42097;DHT22;27754;45.414;11.084;2022-12-18T12:58:08;8.90;78.40
42097;DHT22;27754;45.414;11.084;2022-12-18T13:00:54;8.90;78.20
42097;DHT22;27754;45.414;11.084;2022-12-18T13:06:37;8.90;78.50
42097;DHT22;27754;45.414;11.084;2022-12-18T13:09:10;8.90;78.40
42097;DHT22;27754;45.414;11.084;2022-12-18T13:11:45;8.90;78.40
42097;DHT22;27754;45.414;11.084;2022-12-18T13:14:39;8.90;78.60
42097;DHT22;27754;45.414;11.084;2022-12-18T13:27:59;9.10;76.10
42097;DHT22;27754;45.414;11.084;2022-12-18T13:30:41;8.90;75.90
42097;DHT22;27754;45.414;11.084;2022-12-18T13:41:22;9.00;75.90
42097;DHT22;27754;45.414;11.084;2022-12-18T13:43:57;8.90;76.90
42097;DHT22;27754;45.414;11.084;2022-12-18T13:46:46;8.90;76.80
42097;DHT22;27754;45.414;11.084;2022-12-18T13:51:47;8.90;76.60
42097;DHT22;27754;45.414;11.084;2022-12-18T13:54:33;8.90;75.80
42097;DHT22;27754;45.414;11.084;2022-12-18T13:57:02;8.90;75.70
42097;DHT22;27754;45.414;11.084;2022-12-18T13:59:37;8.90;75.70
42097;DHT22;27754;45.414;11.084;2022-12-18T14:02:16;9.00;75.70
42097;DHT22;27754;45.414;11.084;2022-12-18T14:04:48;9.00;75.20
42097;DHT22;27754;45.414;11.084;2022-12-18T14:07:18;9.00;75.70
42097;DHT22;27754;45.414;11.084;2022-12-18T14:09:49;9.00;76.10
42097;DHT22;27754;45.414;11.084;2022-12-18T14:12:24;8.90;75.20
42097;DHT22;27754;45.414;11.084;2022-12-18T14:17:58;8.80;75.60
42097;DHT22;27754;45.414;11.084;2022-12-18T14:20:27;8.80;75.60
42097;DHT22;27754;45.414;11.084;2022-12-18T14:22:56;8.80;75.60
42097;DHT22;27754;45.414;11.084;2022-12-18T14:25:27;8.80;76.10
42097;DHT22;27754;45.414;11.084;2022-12-18T14:28:13;8.70;76.40
42097;DHT22;27754;45.414;11.084;2022-12-18T14:30:42;8.70;76.70
42097;DHT22;27754;45.414;11.084;2022-12-18T14:33:12;8.60;76.70
42097;DHT22;27754;45.414;11.084;2022-12-18T14:36:03;8.50;77.00
42097;DHT22;27754;45.414;11.084;2022-12-18T14:41:02;8.40;77.40
42097;DHT22;27754;45.414;11.084;2022-12-18T14:43:33;8.40;77.60
42097;DHT22;27754;45.414;11.084;2022-12-18T14:46:03;8.30;77.90
42097;DHT22;27754;45.414;11.084;2022-12-18T14:48:40;8.20;77.80
42097;DHT22;27754;45.414;11.084;2022-12-18T14:53:58;8.10;77.80
42097;DHT22;27754;45.414;11.084;2022-12-18T14:56:37;8.10;78.00
42097;DHT22;27754;45.414;11.084;2022-12-18T14:59:20;8.00;78.20
42097;DHT22;27754;45.414;11.084;2022-12-18T15:07:13;7.80;79.00
42097;DHT22;27754;45.414;11.084;2022-12-18T15:20:52;7.40;79.70
42097;DHT22;27754;45.414;11.084;2022-12-18T15:23:23;7.40;79.80
42097;DHT22;27754;45.414;11.084;2022-12-18T15:26:06;7.40;80.00
42097;DHT22;27754;45.414;11.084;2022-12-18T15:28:50;7.30;80.30
42097;DHT22;27754;45.414;11.084;2022-12-18T15:34:00;7.10;81.20
42097;DHT22;27754;45.414;11.084;2022-12-18T15:36:30;7.00;81.40
42097;DHT22;27754;45.414;11.084;2022-12-18T15:38:57;6.90;81.80
42097;DHT22;27754;45.414;11.084;2022-12-18T15:41:32;6.80;82.10
42097;DHT22;27754;45.414;11.084;2022-12-18T15:44:02;6.80;82.50
42097;DHT22;27754;45.414;11.084;2022-12-18T15:46:30;6.70;82.90
42097;DHT22;27754;45.414;11.084;2022-12-18T15:48:58;6.60;83.30
42097;DHT22;27754;45.414;11.084;2022-12-18T15:51:37;6.60;83.60
42097;DHT22;27754;45.414;11.084;2022-12-18T15:54:06;6.50;83.80
42097;DHT22;27754;45.414;11.084;2022-12-18T15:56:35;6.60;84.20
42097;DHT22;27754;45.414;11.084;2022-12-18T15:59:23;6.50;84.50
42097;DHT22;27754;45.414;11.084;2022-12-18T16:01:51;6.50;84.90
42097;DHT22;27754;45.414;11.084;2022-12-18T16:04:22;6.40;85.30
42097;DHT22;27754;45.414;11.084;2022-12-18T16:06:50;6.40;85.30
42097;DHT22;27754;45.414;11.084;2022-12-18T16:09:38;6.40;85.40
42097;DHT22;27754;45.414;11.084;2022-12-18T16:12:13;6.30;85.70
42097;DHT22;27754;45.414;11.084;2022-12-18T16:14:40;6.30;86.10
42097;DHT22;27754;45.414;11.084;2022-12-18T16:17:10;6.30;86.00
42097;DHT22;27754;45.414;11.084;2022-12-18T16:19:38;6.20;86.00
42097;DHT22;27754;45.414;11.084;2022-12-18T16:22:23;6.20;85.90
42097;DHT22;27754;45.414;11.084;2022-12-18T16:24:51;6.10;86.00
42097;DHT22;27754;45.414;11.084;2022-12-18T16:27:19;6.00;86.30
42097;DHT22;27754;45.414;11.084;2022-12-18T16:29:46;6.00;86.50
42097;DHT22;27754;45.414;11.084;2022-12-18T16:32:16;5.90;86.50
42097;DHT22;27754;45.414;11.084;2022-12-18T16:34:44;5.90;86.60
42097;DHT22;27754;45.414;11.084;2022-12-18T16:37:12;5.80;86.80
42097;DHT22;27754;45.414;11.084;2022-12-18T16:39:40;5.80;87.10
42097;DHT22;27754;45.414;11.084;2022-12-18T16:42:17;5.80;87.40
42097;DHT22;27754;45.414;11.084;2022-12-18T16:44:47;5.80;88.10
42097;DHT22;27754;45.414;11.084;2022-12-18T16:47:14;5.80;88.60
42097;DHT22;27754;45.414;11.084;2022-12-18T16:49:42;5.80;88.80
42097;DHT22;27754;45.414;11.084;2022-12-18T16:52:12;5.80;88.70
42097;DHT22;27754;45.414;11.084;2022-12-18T16:54:39;5.80;89.00
42097;DHT22;27754;45.414;11.084;2022-12-18T16:57:08;5.70;89.10
42097;DHT22;27754;45.414;11.084;2022-12-18T16:59:35;5.70;89.40
42097;DHT22;27754;45.414;11.084;2022-12-18T17:02:02;5.70;89.70
42097;DHT22;27754;45.414;11.084;2022-12-18T17:04:29;5.70;90.00
42097;DHT22;27754;45.414;11.084;2022-12-18T17:06:56;5.70;90.20
42097;DHT22;27754;45.414;11.084;2022-12-18T17:09:23;5.60;90.50
42097;DHT22;27754;45.414;11.084;2022-12-18T17:11:52;5.60;90.70
42097;DHT22;27754;45.414;11.084;2022-12-18T17:14:21;5.60;90.70
42097;DHT22;27754;45.414;11.084;2022-12-18T17:16:51;5.50;90.40
42097;DHT22;27754;45.414;11.084;2022-12-18T17:19:38;5.40;90.30
42097;DHT22;27754;45.414;11.084;2022-12-18T17:22:05;5.40;89.80
42097;DHT22;27754;45.414;11.084;2022-12-18T17:24:34;5.30;89.50
42097;DHT22;27754;45.414;11.084;2022-12-18T17:27:02;5.30;88.90
42097;DHT22;27754;45.414;11.084;2022-12-18T17:29:29;5.30;88.30
42097;DHT22;27754;45.414;11.084;2022-12-18T17:31:56;5.20;88.00
42097;DHT22;27754;45.414;11.084;2022-12-18T17:34:26;5.20;88.00
42097;DHT22;27754;45.414;11.084;2022-12-18T17:36:53;5.20;87.40
42097;DHT22;27754;45.414;11.084;2022-12-18T17:39:20;5.20;87.20
42097;DHT22;27754;45.414;11.084;2022-12-18T17:41:48;5.20;86.90
42097;DHT22;27754;45.414;11.084;2022-12-18T17:44:16;5.10;86.60
42097;DHT22;27754;45.414;11.084;2022-12-18T17:46:43;5.00;86.60
42097;DHT22;27754;45.414;11.084;2022-12-18T17:49:10;4.90;86.80
42097;DHT22;27754;45.414;11.084;2022-12-18T17:51:37;4.90;86.90
42097;DHT22;27754;45.414;11.084;2022-12-18T17:54:05;4.90;86.90
42097;DHT22;27754;45.414;11.084;2022-12-18T17:56:32;4.90;86.90
42097;DHT22;27754;45.414;11.084;2022-12-18T17:58:59;4.90;87.10
42097;DHT22;27754;45.414;11.084;2022-12-18T18:01:27;4.70;86.90